Wiscasset, Maine
Current Conditions -  °F | °C
As of 2:53 PM on Sunday 23 Nov 2014 (Local Time) from KIWI Reporting Station
Clear Clear  
Wind Chill: 53°   Ceiling: Unl
Heat Index: 53°   Visibility: 10mi
Dew Point: 39°   Wind: 3mph
Humidity: 59%   Direction: 160°SSE
Pressure: 30.09"   Gusts: NA
Location:  44°N, 69.66°W
Report Text: KIWI 231953Z AUTO 16003KT 10SM CLR 12/04 A3009 RMK AO2 SLP191 T01170039
Loading
Personal Weather Stations






























Interactive Weather Map New forecast layout! Learn more

10-Day Weather Forecast

Advertisements
Track Severe Weather on mobile